sensor_id;sensor_type;location;lat;lon;timestamp;P1;P2;P0
68841;PMS5003;55849;48.482;2.332;2023-03-19T00:00:21;12.00;12.00;8.75
68841;PMS5003;55849;48.482;2.332;2023-03-19T00:03:23;12.25;11.75;9.50
68841;PMS5003;55849;48.482;2.332;2023-03-19T00:06:26;9.75;9.75;8.00
68841;PMS5003;55849;48.482;2.332;2023-03-19T00:09:28;9.25;8.50;7.00
68841;PMS5003;55849;48.482;2.332;2023-03-19T00:12:29;11.25;9.75;8.00
68841;PMS5003;55849;48.482;2.332;2023-03-19T00:15:31;15.00;10.25;9.00
68841;PMS5003;55849;48.482;2.332;2023-03-19T00:18:32;13.00;10.50;7.25
68841;PMS5003;55849;48.482;2.332;2023-03-19T00:21:35;8.75;8.75;6.75
68841;PMS5003;55849;48.482;2.332;2023-03-19T00:24:37;5.75;5.75;4.25
68841;PMS5003;55849;48.482;2.332;2023-03-19T00:27:39;8.00;8.00;5.50
68841;PMS5003;55849;48.482;2.332;2023-03-19T00:30:41;12.50;12.50;9.00
68841;PMS5003;55849;48.482;2.332;2023-03-19T00:33:44;13.75;13.00;9.75
68841;PMS5003;55849;48.482;2.332;2023-03-19T00:36:47;11.00;11.00;8.50
68841;PMS5003;55849;48.482;2.332;2023-03-19T00:39:48;11.50;9.50;6.50
68841;PMS5003;55849;48.482;2.332;2023-03-19T00:42:50;13.50;10.75;8.00
68841;PMS5003;55849;48.482;2.332;2023-03-19T00:45:52;14.25;11.50;8.50
68841;PMS5003;55849;48.482;2.332;2023-03-19T00:48:53;11.75;10.00;9.00
68841;PMS5003;55849;48.482;2.332;2023-03-19T00:51:56;15.50;13.00;8.50
68841;PMS5003;55849;48.482;2.332;2023-03-19T00:54:58;8.00;5.50;5.00
68841;PMS5003;55849;48.482;2.332;2023-03-19T00:58:00;5.50;5.50;3.50
68841;PMS5003;55849;48.482;2.332;2023-03-19T01:01:01;4.00;4.00;3.25
68841;PMS5003;55849;48.482;2.332;2023-03-19T01:04:03;7.00;7.00;5.00
68841;PMS5003;55849;48.482;2.332;2023-03-19T01:07:06;11.50;7.00;5.00
68841;PMS5003;55849;48.482;2.332;2023-03-19T01:10:08;5.50;5.50;2.25
68841;PMS5003;55849;48.482;2.332;2023-03-19T01:13:11;8.25;3.50;3.00
68841;PMS5003;55849;48.482;2.332;2023-03-19T01:16:13;5.00;5.00;4.00
68841;PMS5003;55849;48.482;2.332;2023-03-19T01:19:14;6.25;6.25;4.25
68841;PMS5003;55849;48.482;2.332;2023-03-19T01:22:18;8.00;8.00;5.75
68841;PMS5003;55849;48.482;2.332;2023-03-19T01:25:19;4.50;4.50;4.00
68841;PMS5003;55849;48.482;2.332;2023-03-19T01:28:21;5.50;5.50;3.75
68841;PMS5003;55849;48.482;2.332;2023-03-19T01:31:23;9.00;7.75;5.00
68841;PMS5003;55849;48.482;2.332;2023-03-19T01:34:24;10.50;9.00;6.00
68841;PMS5003;55849;48.482;2.332;2023-03-19T01:37:27;7.50;3.75;3.00
68841;PMS5003;55849;48.482;2.332;2023-03-19T01:40:29;4.00;4.00;3.00
68841;PMS5003;55849;48.482;2.332;2023-03-19T01:43:31;10.25;8.00;7.00
68841;PMS5003;55849;48.482;2.332;2023-03-19T01:46:33;4.00;4.00;3.50
68841;PMS5003;55849;48.482;2.332;2023-03-19T01:49:37;6.50;6.00;4.75
68841;PMS5003;55849;48.482;2.332;2023-03-19T01:52:41;6.50;4.50;3.50
68841;PMS5003;55849;48.482;2.332;2023-03-19T01:55:42;7.00;7.00;4.75
68841;PMS5003;55849;48.482;2.332;2023-03-19T01:58:46;6.50;6.50;5.75
68841;PMS5003;55849;48.482;2.332;2023-03-19T02:01:52;5.50;5.50;2.25
68841;PMS5003;55849;48.482;2.332;2023-03-19T02:04:59;8.25;6.25;5.25
68841;PMS5003;55849;48.482;2.332;2023-03-19T02:08:06;13.25;9.00;7.00
68841;PMS5003;55849;48.482;2.332;2023-03-19T02:11:10;7.00;7.00;4.50
68841;PMS5003;55849;48.482;2.332;2023-03-19T02:14:12;4.00;4.00;3.75
68841;PMS5003;55849;48.482;2.332;2023-03-19T02:17:14;8.50;5.25;3.75
68841;PMS5003;55849;48.482;2.332;2023-03-19T02:20:16;9.00;7.00;4.50
68841;PMS5003;55849;48.482;2.332;2023-03-19T02:23:31;5.50;3.50;3.00
68841;PMS5003;55849;48.482;2.332;2023-03-19T02:26:38;15.75;10.00;7.00
68841;PMS5003;55849;48.482;2.332;2023-03-19T02:29:42;10.00;9.75;7.00
68841;PMS5003;55849;48.482;2.332;2023-03-19T02:32:43;6.50;4.75;3.75
68841;PMS5003;55849;48.482;2.332;2023-03-19T02:35:46;6.00;6.00;6.00
68841;PMS5003;55849;48.482;2.332;2023-03-19T02:38:50;6.75;6.00;4.25
68841;PMS5003;55849;48.482;2.332;2023-03-19T02:41:55;8.25;6.00;4.75
68841;PMS5003;55849;48.482;2.332;2023-03-19T02:44:59;9.00;6.50;5.75
68841;PMS5003;55849;48.482;2.332;2023-03-19T02:48:00;11.25;8.75;4.75
68841;PMS5003;55849;48.482;2.332;2023-03-19T02:51:02;8.75;6.00;5.25
68841;PMS5003;55849;48.482;2.332;2023-03-19T02:54:05;5.25;4.25;3.00
68841;PMS5003;55849;48.482;2.332;2023-03-19T02:57:08;6.00;6.00;4.00
68841;PMS5003;55849;48.482;2.332;2023-03-19T03:00:10;6.25;6.00;3.00
68841;PMS5003;55849;48.482;2.332;2023-03-19T03:03:12;8.25;6.00;4.50
68841;PMS5003;55849;48.482;2.332;2023-03-19T03:06:14;7.00;7.00;5.75
68841;PMS5003;55849;48.482;2.332;2023-03-19T03:09:17;5.50;4.00;4.00
68841;PMS5003;55849;48.482;2.332;2023-03-19T03:12:20;9.75;6.00;4.75
68841;PMS5003;55849;48.482;2.332;2023-03-19T03:15:22;9.25;9.25;6.00
68841;PMS5003;55849;48.482;2.332;2023-03-19T03:18:23;9.50;9.25;4.75
68841;PMS5003;55849;48.482;2.332;2023-03-19T03:21:26;5.50;5.50;5.00
68841;PMS5003;55849;48.482;2.332;2023-03-19T03:24:28;9.50;7.50;6.00
68841;PMS5003;55849;48.482;2.332;2023-03-19T03:27:31;5.75;4.00;3.00
68841;PMS5003;55849;48.482;2.332;2023-03-19T03:30:33;4.00;4.00;4.00
68841;PMS5003;55849;48.482;2.332;2023-03-19T03:33:35;11.25;10.00;6.25
68841;PMS5003;55849;48.482;2.332;2023-03-19T03:36:36;6.00;6.00;3.25
68841;PMS5003;55849;48.482;2.332;2023-03-19T03:39:38;10.00;10.00;6.00
68841;PMS5003;55849;48.482;2.332;2023-03-19T03:42:41;9.25;8.25;5.25
68841;PMS5003;55849;48.482;2.332;2023-03-19T03:45:43;5.25;4.00;3.00
68841;PMS5003;55849;48.482;2.332;2023-03-19T03:48:46;15.75;12.00;8.00
68841;PMS5003;55849;48.482;2.332;2023-03-19T03:51:48;15.00;10.25;8.00
68841;PMS5003;55849;48.482;2.332;2023-03-19T03:54:50;8.75;8.00;5.50
68841;PMS5003;55849;48.482;2.332;2023-03-19T03:57:53;11.00;11.00;8.00
68841;PMS5003;55849;48.482;2.332;2023-03-19T04:00:55;12.75;11.50;6.25
68841;PMS5003;55849;48.482;2.332;2023-03-19T04:03:56;8.00;8.00;6.00
68841;PMS5003;55849;48.482;2.332;2023-03-19T04:06:58;8.50;6.50;5.00
68841;PMS5003;55849;48.482;2.332;2023-03-19T04:10:00;6.00;6.00;3.75
68841;PMS5003;55849;48.482;2.332;2023-03-19T04:13:03;13.50;12.50;8.00
68841;PMS5003;55849;48.482;2.332;2023-03-19T04:16:05;7.00;7.00;5.25
68841;PMS5003;55849;48.482;2.332;2023-03-19T04:19:08;10.75;9.50;6.75
68841;PMS5003;55849;48.482;2.332;2023-03-19T04:22:10;6.00;6.00;1.00
68841;PMS5003;55849;48.482;2.332;2023-03-19T04:25:11;9.00;8.00;5.25
68841;PMS5003;55849;48.482;2.332;2023-03-19T04:28:14;10.00;9.00;6.00
68841;PMS5003;55849;48.482;2.332;2023-03-19T04:31:16;8.25;7.50;6.50
68841;PMS5003;55849;48.482;2.332;2023-03-19T04:34:18;1.00;1.00;0.00
68841;PMS5003;55849;48.482;2.332;2023-03-19T04:37:19;8.75;8.50;6.00
68841;PMS5003;55849;48.482;2.332;2023-03-19T04:40:21;6.00;6.00;3.75
68841;PMS5003;55849;48.482;2.332;2023-03-19T04:43:24;7.50;7.50;6.00
68841;PMS5003;55849;48.482;2.332;2023-03-19T04:46:26;10.75;10.00;7.25
68841;PMS5003;55849;48.482;2.332;2023-03-19T04:49:28;8.00;5.75;4.25
68841;PMS5003;55849;48.482;2.332;2023-03-19T04:52:30;13.75;7.75;6.00
68841;PMS5003;55849;48.482;2.332;2023-03-19T04:55:32;11.25;7.50;4.75
68841;PMS5003;55849;48.482;2.332;2023-03-19T04:58:35;12.25;8.50;6.50
68841;PMS5003;55849;48.482;2.332;2023-03-19T05:01:37;10.00;10.00;5.75
68841;PMS5003;55849;48.482;2.332;2023-03-19T05:04:38;15.00;13.50;8.50
68841;PMS5003;55849;48.482;2.332;2023-03-19T05:07:40;10.25;10.00;7.00
68841;PMS5003;55849;48.482;2.332;2023-03-19T05:10:42;10.00;10.00;7.00
68841;PMS5003;55849;48.482;2.332;2023-03-19T05:13:45;10.50;7.50;4.75
68841;PMS5003;55849;48.482;2.332;2023-03-19T05:16:46;15.50;13.50;8.00
68841;PMS5003;55849;48.482;2.332;2023-03-19T05:19:48;15.00;12.25;7.75
68841;PMS5003;55849;48.482;2.332;2023-03-19T05:22:51;7.75;7.75;6.50
68841;PMS5003;55849;48.482;2.332;2023-03-19T05:25:53;9.50;9.50;6.00
68841;PMS5003;55849;48.482;2.332;2023-03-19T05:28:57;9.00;6.75;4.25
68841;PMS5003;55849;48.482;2.332;2023-03-19T05:31:59;8.00;7.75;6.25
68841;PMS5003;55849;48.482;2.332;2023-03-19T05:35:02;12.00;9.00;6.00
68841;PMS5003;55849;48.482;2.332;2023-03-19T05:38:04;9.75;9.75;7.00
68841;PMS5003;55849;48.482;2.332;2023-03-19T05:41:06;9.50;5.25;3.50
68841;PMS5003;55849;48.482;2.332;2023-03-19T05:44:09;10.00;6.50;5.25
68841;PMS5003;55849;48.482;2.332;2023-03-19T05:47:11;11.25;8.75;7.25
68841;PMS5003;55849;48.482;2.332;2023-03-19T05:50:13;13.25;9.50;7.00
68841;PMS5003;55849;48.482;2.332;2023-03-19T05:53:15;11.50;11.50;6.75
68841;PMS5003;55849;48.482;2.332;2023-03-19T05:56:17;14.00;14.00;8.75
68841;PMS5003;55849;48.482;2.332;2023-03-19T05:59:20;15.00;12.25;7.25
68841;PMS5003;55849;48.482;2.332;2023-03-19T06:02:22;15.25;13.00;8.00
68841;PMS5003;55849;48.482;2.332;2023-03-19T06:05:24;14.75;13.00;8.75
68841;PMS5003;55849;48.482;2.332;2023-03-19T06:08:25;14.00;11.00;7.75
68841;PMS5003;55849;48.482;2.332;2023-03-19T06:11:27;8.75;8.75;6.75
68841;PMS5003;55849;48.482;2.332;2023-03-19T06:14:30;15.75;15.00;9.00
68841;PMS5003;55849;48.482;2.332;2023-03-19T06:17:34;13.25;13.25;9.75
68841;PMS5003;55849;48.482;2.332;2023-03-19T06:20:36;13.25;10.75;7.75
68841;PMS5003;55849;48.482;2.332;2023-03-19T06:23:38;10.25;9.00;7.25
68841;PMS5003;55849;48.482;2.332;2023-03-19T06:26:39;10.25;8.75;5.25
68841;PMS5003;55849;48.482;2.332;2023-03-19T06:29:42;11.50;10.50;8.00
68841;PMS5003;55849;48.482;2.332;2023-03-19T06:32:44;15.25;13.00;7.75
68841;PMS5003;55849;48.482;2.332;2023-03-19T06:35:46;14.25;13.00;8.00
68841;PMS5003;55849;48.482;2.332;2023-03-19T06:38:48;11.50;10.25;8.00
68841;PMS5003;55849;48.482;2.332;2023-03-19T06:41:50;10.75;8.00;5.50
68841;PMS5003;55849;48.482;2.332;2023-03-19T06:44:53;10.50;6.25;4.00
68841;PMS5003;55849;48.482;2.332;2023-03-19T06:47:54;3.75;3.75;3.00
68841;PMS5003;55849;48.482;2.332;2023-03-19T06:50:56;8.50;8.25;5.75
68841;PMS5003;55849;48.482;2.332;2023-03-19T06:53:57;11.25;8.50;4.25
68841;PMS5003;55849;48.482;2.332;2023-03-19T06:56:59;10.00;10.00;5.00
68841;PMS5003;55849;48.482;2.332;2023-03-19T07:00:02;10.00;6.00;4.25
68841;PMS5003;55849;48.482;2.332;2023-03-19T07:03:05;9.75;9.75;6.00
68841;PMS5003;55849;48.482;2.332;2023-03-19T07:06:07;15.00;10.00;7.00
68841;PMS5003;55849;48.482;2.332;2023-03-19T07:09:09;8.75;6.75;4.75
68841;PMS5003;55849;48.482;2.332;2023-03-19T07:12:11;11.00;10.00;6.25
68841;PMS5003;55849;48.482;2.332;2023-03-19T07:15:14;8.75;6.75;4.50
68841;PMS5003;55849;48.482;2.332;2023-03-19T07:18:16;6.50;6.00;5.00
68841;PMS5003;55849;48.482;2.332;2023-03-19T07:21:18;10.50;10.00;5.00
68841;PMS5003;55849;48.482;2.332;2023-03-19T07:24:19;7.25;7.25;5.00
68841;PMS5003;55849;48.482;2.332;2023-03-19T07:27:21;9.00;8.00;6.00
68841;PMS5003;55849;48.482;2.332;2023-03-19T07:30:24;9.25;9.25;5.25
68841;PMS5003;55849;48.482;2.332;2023-03-19T07:33:26;28.25;19.00;14.00
68841;PMS5003;55849;48.482;2.332;2023-03-19T07:36:27;29.75;22.50;15.25
68841;PMS5003;55849;48.482;2.332;2023-03-19T07:39:29;60.00;46.00;30.25
68841;PMS5003;55849;48.482;2.332;2023-03-19T07:42:31;69.75;51.75;32.00
68841;PMS5003;55849;48.482;2.332;2023-03-19T07:45:36;24.25;21.25;12.25
68841;PMS5003;55849;48.482;2.332;2023-03-19T07:48:38;19.50;18.75;13.25
68841;PMS5003;55849;48.482;2.332;2023-03-19T07:51:40;19.25;15.25;10.25
68841;PMS5003;55849;48.482;2.332;2023-03-19T07:54:41;19.75;17.75;11.75
68841;PMS5003;55849;48.482;2.332;2023-03-19T07:57:43;23.00;19.50;12.75
68841;PMS5003;55849;48.482;2.332;2023-03-19T08:00:46;25.00;22.50;15.50
68841;PMS5003;55849;48.482;2.332;2023-03-19T08:03:47;15.75;13.25;9.00
68841;PMS5003;55849;48.482;2.332;2023-03-19T08:06:49;19.00;15.00;11.00
68841;PMS5003;55849;48.482;2.332;2023-03-19T08:09:51;12.00;9.25;7.00
68841;PMS5003;55849;48.482;2.332;2023-03-19T08:12:52;16.00;15.25;10.25
68841;PMS5003;55849;48.482;2.332;2023-03-19T08:15:55;13.50;11.00;8.25
68841;PMS5003;55849;48.482;2.332;2023-03-19T08:18:57;16.50;16.00;10.25
68841;PMS5003;55849;48.482;2.332;2023-03-19T08:21:59;12.50;12.50;7.25
68841;PMS5003;55849;48.482;2.332;2023-03-19T08:25:00;10.00;9.75;8.00
68841;PMS5003;55849;48.482;2.332;2023-03-19T08:28:02;16.75;16.00;9.25
68841;PMS5003;55849;48.482;2.332;2023-03-19T08:31:06;10.75;10.25;6.75
68841;PMS5003;55849;48.482;2.332;2023-03-19T08:34:09;12.00;12.00;8.00
68841;PMS5003;55849;48.482;2.332;2023-03-19T08:37:10;12.00;11.75;8.25
68841;PMS5003;55849;48.482;2.332;2023-03-19T08:40:12;14.75;12.75;8.00
68841;PMS5003;55849;48.482;2.332;2023-03-19T08:43:14;6.00;6.00;5.00
68841;PMS5003;55849;48.482;2.332;2023-03-19T08:46:17;8.50;8.00;6.00
68841;PMS5003;55849;48.482;2.332;2023-03-19T08:49:19;12.50;11.25;7.75
68841;PMS5003;55849;48.482;2.332;2023-03-19T08:52:21;7.50;7.50;5.00
68841;PMS5003;55849;48.482;2.332;2023-03-19T08:55:22;9.25;7.00;5.00
68841;PMS5003;55849;48.482;2.332;2023-03-19T08:58:24;9.50;6.00;4.00
68841;PMS5003;55849;48.482;2.332;2023-03-19T09:01:28;8.25;7.25;5.50
68841;PMS5003;55849;48.482;2.332;2023-03-19T09:04:30;8.00;8.00;4.25
68841;PMS5003;55849;48.482;2.332;2023-03-19T09:07:35;10.75;8.50;6.25
68841;PMS5003;55849;48.482;2.332;2023-03-19T09:10:37;7.50;6.25;5.00
68841;PMS5003;55849;48.482;2.332;2023-03-19T09:13:38;8.25;6.50;4.00
68841;PMS5003;55849;48.482;2.332;2023-03-19T09:16:42;8.50;7.50;4.50
68841;PMS5003;55849;48.482;2.332;2023-03-19T09:19:44;11.50;7.50;5.00
68841;PMS5003;55849;48.482;2.332;2023-03-19T09:22:45;10.00;9.50;7.50
68841;PMS5003;55849;48.482;2.332;2023-03-19T09:25:47;2.00;2.00;2.00
68841;PMS5003;55849;48.482;2.332;2023-03-19T09:28:49;6.50;4.75;2.25
68841;PMS5003;55849;48.482;2.332;2023-03-19T09:31:52;8.75;8.00;5.00
68841;PMS5003;55849;48.482;2.332;2023-03-19T09:34:54;6.00;5.00;4.00
68841;PMS5003;55849;48.482;2.332;2023-03-19T09:37:55;16.75;12.25;8.50
68841;PMS5003;55849;48.482;2.332;2023-03-19T09:41:02;11.25;11.00;6.00
68841;PMS5003;55849;48.482;2.332;2023-03-19T09:44:10;5.50;5.00;3.00
68841;PMS5003;55849;48.482;2.332;2023-03-19T09:47:23;10.25;8.75;6.75
68841;PMS5003;55849;48.482;2.332;2023-03-19T09:50:27;11.25;10.75;8.25
68841;PMS5003;55849;48.482;2.332;2023-03-19T09:53:33;6.50;6.50;4.00
68841;PMS5003;55849;48.482;2.332;2023-03-19T09:56:40;10.50;7.00;5.00
68841;PMS5003;55849;48.482;2.332;2023-03-19T09:59:42;8.50;6.75;5.25
68841;PMS5003;55849;48.482;2.332;2023-03-19T10:02:45;10.00;10.00;6.25
68841;PMS5003;55849;48.482;2.332;2023-03-19T10:05:53;9.75;6.75;5.00
68841;PMS5003;55849;48.482;2.332;2023-03-19T10:12:35;10.00;8.00;6.25
68841;PMS5003;55849;48.482;2.332;2023-03-19T10:15:45;4.00;2.25;1.00
68841;PMS5003;55849;48.482;2.332;2023-03-19T10:18:49;12.50;10.75;7.00
68841;PMS5003;55849;48.482;2.332;2023-03-19T10:21:55;3.00;2.00;1.00
68841;PMS5003;55849;48.482;2.332;2023-03-19T10:25:01;10.00;8.75;6.00
68841;PMS5003;55849;48.482;2.332;2023-03-19T10:28:09;12.75;10.75;8.00
68841;PMS5003;55849;48.482;2.332;2023-03-19T10:31:24;30.00;28.00;21.00
68841;PMS5003;55849;48.482;2.332;2023-03-19T10:34:29;13.75;10.50;7.00
68841;PMS5003;55849;48.482;2.332;2023-03-19T10:37:32;8.50;7.00;5.50
68841;PMS5003;55849;48.482;2.332;2023-03-19T10:40:35;4.00;4.00;2.50
68841;PMS5003;55849;48.482;2.332;2023-03-19T10:43:46;3.75;3.75;2.00
68841;PMS5003;55849;48.482;2.332;2023-03-19T10:46:53;4.75;4.00;3.00
68841;PMS5003;55849;48.482;2.332;2023-03-19T10:49:59;9.00;9.00;7.00
68841;PMS5003;55849;48.482;2.332;2023-03-19T10:53:05;16.00;16.00;10.50
68841;PMS5003;55849;48.482;2.332;2023-03-19T10:56:16;7.50;6.75;4.00
68841;PMS5003;55849;48.482;2.332;2023-03-19T10:59:21;11.00;10.25;8.25
68841;PMS5003;55849;48.482;2.332;2023-03-19T11:02:24;4.00;4.00;3.00
68841;PMS5003;55849;48.482;2.332;2023-03-19T11:05:32;4.00;4.00;2.00
68841;PMS5003;55849;48.482;2.332;2023-03-19T11:08:35;0.75;0.75;0.75
68841;PMS5003;55849;48.482;2.332;2023-03-19T11:11:41;3.50;2.00;1.75
68841;PMS5003;55849;48.482;2.332;2023-03-19T11:14:45;2.00;2.00;1.50
68841;PMS5003;55849;48.482;2.332;2023-03-19T11:17:48;6.00;3.75;2.00
68841;PMS5003;55849;48.482;2.332;2023-03-19T11:20:57;5.75;4.00;2.75
68841;PMS5003;55849;48.482;2.332;2023-03-19T11:24:02;5.00;4.00;2.75
68841;PMS5003;55849;48.482;2.332;2023-03-19T11:27:04;6.25;6.25;4.00
68841;PMS5003;55849;48.482;2.332;2023-03-19T11:30:11;5.00;5.00;4.00
68841;PMS5003;55849;48.482;2.332;2023-03-19T11:33:23;8.75;6.75;3.50
68841;PMS5003;55849;48.482;2.332;2023-03-19T11:36:39;7.50;7.00;5.25
68841;PMS5003;55849;48.482;2.332;2023-03-19T11:39:50;6.50;6.50;5.00
68841;PMS5003;55849;48.482;2.332;2023-03-19T11:43:07;14.50;11.25;6.25
68841;PMS5003;55849;48.482;2.332;2023-03-19T11:46:33;15.25;15.00;8.50
68841;PMS5003;55849;48.482;2.332;2023-03-19T11:49:41;10.75;9.25;7.00
68841;PMS5003;55849;48.482;2.332;2023-03-19T11:53:00;11.25;8.25;5.00
68841;PMS5003;55849;48.482;2.332;2023-03-19T11:56:11;13.00;13.00;9.25
68841;PMS5003;55849;48.482;2.332;2023-03-19T11:59:25;23.00;15.50;10.50
68841;PMS5003;55849;48.482;2.332;2023-03-19T12:02:56;10.50;10.50;7.00
68841;PMS5003;55849;48.482;2.332;2023-03-19T12:06:23;9.75;8.25;6.00
68841;PMS5003;55849;48.482;2.332;2023-03-19T12:09:36;9.00;8.50;6.00
68841;PMS5003;55849;48.482;2.332;2023-03-19T12:12:47;9.00;6.00;4.00
68841;PMS5003;55849;48.482;2.332;2023-03-19T12:15:59;6.75;5.00;3.75
68841;PMS5003;55849;48.482;2.332;2023-03-19T12:19:14;4.00;4.00;3.00
68841;PMS5003;55849;48.482;2.332;2023-03-19T12:22:25;5.75;5.75;3.75
68841;PMS5003;55849;48.482;2.332;2023-03-19T12:25:44;5.25;5.25;4.50
68841;PMS5003;55849;48.482;2.332;2023-03-19T12:29:04;7.00;6.00;4.00
68841;PMS5003;55849;48.482;2.332;2023-03-19T12:32:18;7.25;6.50;4.00
68841;PMS5003;55849;48.482;2.332;2023-03-19T12:35:34;10.25;7.50;6.00
68841;PMS5003;55849;48.482;2.332;2023-03-19T12:38:38;11.00;10.75;7.00
68841;PMS5003;55849;48.482;2.332;2023-03-19T12:41:45;12.00;10.75;8.00
68841;PMS5003;55849;48.482;2.332;2023-03-19T12:44:51;12.00;11.75;8.00
68841;PMS5003;55849;48.482;2.332;2023-03-19T12:47:57;7.50;6.25;4.50
68841;PMS5003;55849;48.482;2.332;2023-03-19T12:51:03;7.25;7.25;5.75
68841;PMS5003;55849;48.482;2.332;2023-03-19T12:54:09;6.50;5.50;4.50
68841;PMS5003;55849;48.482;2.332;2023-03-19T12:57:17;6.25;6.25;4.00
68841;PMS5003;55849;48.482;2.332;2023-03-19T13:00:27;4.50;4.50;3.00
68841;PMS5003;55849;48.482;2.332;2023-03-19T13:03:36;10.50;8.00;5.75
68841;PMS5003;55849;48.482;2.332;2023-03-19T13:06:45;9.50;9.50;6.50
68841;PMS5003;55849;48.482;2.332;2023-03-19T13:09:52;8.75;7.75;6.25
68841;PMS5003;55849;48.482;2.332;2023-03-19T13:13:01;14.50;12.25;8.25
68841;PMS5003;55849;48.482;2.332;2023-03-19T13:16:28;11.50;10.75;7.75
68841;PMS5003;55849;48.482;2.332;2023-03-19T13:19:36;6.25;5.50;4.25
68841;PMS5003;55849;48.482;2.332;2023-03-19T13:22:45;19.25;19.25;14.00
68841;PMS5003;55849;48.482;2.332;2023-03-19T13:25:51;5.00;5.00;3.00
68841;PMS5003;55849;48.482;2.332;2023-03-19T13:28:59;8.75;8.75;6.75
68841;PMS5003;55849;48.482;2.332;2023-03-19T13:32:03;9.25;9.25;7.25
68841;PMS5003;55849;48.482;2.332;2023-03-19T13:38:38;7.75;5.50;4.25
68841;PMS5003;55849;48.482;2.332;2023-03-19T13:45:30;13.50;13.50;8.75
68841;PMS5003;55849;48.482;2.332;2023-03-19T13:48:35;7.00;6.25;4.00
68841;PMS5003;55849;48.482;2.332;2023-03-19T13:51:38;7.75;6.75;5.00
68841;PMS5003;55849;48.482;2.332;2023-03-19T13:54:40;5.00;5.00;4.00
68841;PMS5003;55849;48.482;2.332;2023-03-19T13:57:52;8.00;6.25;3.50
68841;PMS5003;55849;48.482;2.332;2023-03-19T14:01:02;5.25;5.25;4.00
68841;PMS5003;55849;48.482;2.332;2023-03-19T14:04:05;5.00;4.00;3.00
68841;PMS5003;55849;48.482;2.332;2023-03-19T14:07:16;3.50;3.50;2.75
68841;PMS5003;55849;48.482;2.332;2023-03-19T14:10:22;5.00;4.75;2.50
68841;PMS5003;55849;48.482;2.332;2023-03-19T14:13:30;6.00;5.00;4.50
68841;PMS5003;55849;48.482;2.332;2023-03-19T14:16:35;7.00;5.00;5.00
68841;PMS5003;55849;48.482;2.332;2023-03-19T14:19:41;5.75;4.00;3.00
68841;PMS5003;55849;48.482;2.332;2023-03-19T14:22:52;5.00;3.50;2.00
68841;PMS5003;55849;48.482;2.332;2023-03-19T14:29:17;3.25;3.00;2.00
68841;PMS5003;55849;48.482;2.332;2023-03-19T14:32:38;5.50;3.75;2.75
68841;PMS5003;55849;48.482;2.332;2023-03-19T14:35:46;3.00;3.00;2.00
68841;PMS5003;55849;48.482;2.332;2023-03-19T14:38:52;2.00;2.00;2.00
68841;PMS5003;55849;48.482;2.332;2023-03-19T14:42:02;3.75;3.75;3.00
68841;PMS5003;55849;48.482;2.332;2023-03-19T14:45:07;2.50;2.50;1.00
68841;PMS5003;55849;48.482;2.332;2023-03-19T14:52:16;2.50;2.50;2.00
68841;PMS5003;55849;48.482;2.332;2023-03-19T14:55:22;6.75;6.25;5.00
68841;PMS5003;55849;48.482;2.332;2023-03-19T14:58:33;1.50;1.50;1.00
68841;PMS5003;55849;48.482;2.332;2023-03-19T15:01:38;2.25;2.25;2.00
68841;PMS5003;55849;48.482;2.332;2023-03-19T15:04:44;2.50;2.50;2.25
68841;PMS5003;55849;48.482;2.332;2023-03-19T15:07:47;3.75;3.00;1.00
68841;PMS5003;55849;48.482;2.332;2023-03-19T15:10:57;3.00;3.00;3.00
68841;PMS5003;55849;48.482;2.332;2023-03-19T15:14:10;4.00;4.00;3.25
68841;PMS5003;55849;48.482;2.332;2023-03-19T15:17:23;2.50;2.50;2.00
68841;PMS5003;55849;48.482;2.332;2023-03-19T15:23:53;3.25;3.25;2.25
68841;PMS5003;55849;48.482;2.332;2023-03-19T15:26:55;5.75;3.25;2.50
68841;PMS5003;55849;48.482;2.332;2023-03-19T15:29:56;4.25;4.25;2.50
68841;PMS5003;55849;48.482;2.332;2023-03-19T15:32:58;6.25;6.00;4.00
68841;PMS5003;55849;48.482;2.332;2023-03-19T15:36:02;4.00;3.00;2.00
68841;PMS5003;55849;48.482;2.332;2023-03-19T15:39:08;4.75;4.75;4.00
68841;PMS5003;55849;48.482;2.332;2023-03-19T15:42:13;3.50;3.50;2.50
68841;PMS5003;55849;48.482;2.332;2023-03-19T15:45:17;9.00;6.00;4.00
68841;PMS5003;55849;48.482;2.332;2023-03-19T15:48:23;3.00;3.00;2.00
68841;PMS5003;55849;48.482;2.332;2023-03-19T15:51:29;2.00;2.00;1.00
68841;PMS5003;55849;48.482;2.332;2023-03-19T15:54:33;2.25;2.00;1.00
68841;PMS5003;55849;48.482;2.332;2023-03-19T15:57:35;1.75;1.75;1.50
68841;PMS5003;55849;48.482;2.332;2023-03-19T16:00:38;1.00;1.00;1.00
68841;PMS5003;55849;48.482;2.332;2023-03-19T16:03:42;2.00;2.00;1.75
68841;PMS5003;55849;48.482;2.332;2023-03-19T16:06:48;3.00;2.00;2.00
68841;PMS5003;55849;48.482;2.332;2023-03-19T16:09:50;5.25;4.00;2.00
68841;PMS5003;55849;48.482;2.332;2023-03-19T16:12:51;17.00;12.50;7.00
68841;PMS5003;55849;48.482;2.332;2023-03-19T16:15:54;2.50;1.25;1.00
68841;PMS5003;55849;48.482;2.332;2023-03-19T16:19:00;7.50;7.00;3.50
68841;PMS5003;55849;48.482;2.332;2023-03-19T16:22:11;4.00;2.75;2.00
68841;PMS5003;55849;48.482;2.332;2023-03-19T16:25:15;3.25;3.25;3.00
68841;PMS5003;55849;48.482;2.332;2023-03-19T16:28:19;2.75;2.00;1.00
68841;PMS5003;55849;48.482;2.332;2023-03-19T16:31:23;2.00;2.00;2.00
68841;PMS5003;55849;48.482;2.332;2023-03-19T16:34:30;2.25;2.25;1.50
68841;PMS5003;55849;48.482;2.332;2023-03-19T16:37:41;2.00;1.25;0.75
68841;PMS5003;55849;48.482;2.332;2023-03-19T16:40:44;3.00;2.50;2.00
68841;PMS5003;55849;48.482;2.332;2023-03-19T16:43:46;3.00;3.00;2.00
68841;PMS5003;55849;48.482;2.332;2023-03-19T16:46:48;2.00;0.75;0.50
68841;PMS5003;55849;48.482;2.332;2023-03-19T16:49:50;2.00;2.00;1.50
68841;PMS5003;55849;48.482;2.332;2023-03-19T16:52:52;8.75;7.00;5.00
68841;PMS5003;55849;48.482;2.332;2023-03-19T16:55:55;4.75;4.75;3.00
68841;PMS5003;55849;48.482;2.332;2023-03-19T16:58:59;6.50;6.50;4.00
68841;PMS5003;55849;48.482;2.332;2023-03-19T17:02:08;15.00;11.75;7.75
68841;PMS5003;55849;48.482;2.332;2023-03-19T17:05:11;6.00;6.00;4.00
68841;PMS5003;55849;48.482;2.332;2023-03-19T17:08:15;14.50;11.75;9.50
68841;PMS5003;55849;48.482;2.332;2023-03-19T17:11:19;19.25;17.50;13.25
68841;PMS5003;55849;48.482;2.332;2023-03-19T17:14:24;64.50;51.50;34.50
68841;PMS5003;55849;48.482;2.332;2023-03-19T17:17:26;21.75;21.25;14.50
68841;PMS5003;55849;48.482;2.332;2023-03-19T17:20:29;29.50;25.50;17.50
68841;PMS5003;55849;48.482;2.332;2023-03-19T17:23:34;17.00;16.00;12.00
68841;PMS5003;55849;48.482;2.332;2023-03-19T17:26:37;15.25;13.50;9.25
68841;PMS5003;55849;48.482;2.332;2023-03-19T17:29:38;14.25;11.00;7.50
68841;PMS5003;55849;48.482;2.332;2023-03-19T17:32:40;31.25;27.75;19.75
68841;PMS5003;55849;48.482;2.332;2023-03-19T17:35:45;12.00;11.00;8.25
68841;PMS5003;55849;48.482;2.332;2023-03-19T17:38:48;15.75;13.00;9.00
68841;PMS5003;55849;48.482;2.332;2023-03-19T17:41:50;11.50;10.50;7.00
68841;PMS5003;55849;48.482;2.332;2023-03-19T17:44:53;42.75;36.00;21.75
68841;PMS5003;55849;48.482;2.332;2023-03-19T17:47:56;26.75;25.25;21.75
68841;PMS5003;55849;48.482;2.332;2023-03-19T17:50:59;15.25;14.00;10.50
68841;PMS5003;55849;48.482;2.332;2023-03-19T17:54:05;22.25;22.25;16.75
68841;PMS5003;55849;48.482;2.332;2023-03-19T17:57:11;34.75;30.75;24.00
68841;PMS5003;55849;48.482;2.332;2023-03-19T18:00:14;38.25;35.25;27.00
68841;PMS5003;55849;48.482;2.332;2023-03-19T18:03:17;33.50;32.50;21.50
68841;PMS5003;55849;48.482;2.332;2023-03-19T18:06:21;48.00;37.00;25.75